sensor_id;sensor_type;location;lat;lon;timestamp;pressure;altitude;pressure_sealevel;temperature;humidity
51928;BME280;37953;52.806;18.270;2023-11-21T00:00:35;99966.81;;;4.05;100.00
51928;BME280;37953;52.806;18.270;2023-11-21T00:03:21;99969.34;;;4.03;100.00
51928;BME280;37953;52.806;18.270;2023-11-21T00:05:49;99967.53;;;3.99;100.00
51928;BME280;37953;52.806;18.270;2023-11-21T00:08:15;99958.06;;;3.97;100.00
51928;BME280;37953;52.806;18.270;2023-11-21T00:10:41;99970.97;;;3.98;100.00
51928;BME280;37953;52.806;18.270;2023-11-21T00:13:07;99972.69;;;3.99;100.00
51928;BME280;37953;52.806;18.270;2023-11-21T00:15:33;99978.66;;;3.98;100.00
51928;BME280;37953;52.806;18.270;2023-11-21T00:17:59;99988.06;;;3.96;100.00
51928;BME280;37953;52.806;18.270;2023-11-21T00:20:25;99987.19;;;3.97;100.00
51928;BME280;37953;52.806;18.270;2023-11-21T00:22:51;99983.78;;;3.97;100.00
51928;BME280;37953;52.806;18.270;2023-11-21T00:25:17;99987.19;;;3.97;100.00
51928;BME280;37953;52.806;18.270;2023-11-21T00:27:43;99980.19;;;3.90;100.00
51928;BME280;37953;52.806;18.270;2023-11-21T00:30:10;99984.47;;;3.90;100.00
51928;BME280;37953;52.806;18.270;2023-11-21T00:32:37;99991.31;;;3.89;100.00
51928;BME280;37953;52.806;18.270;2023-11-21T00:35:06;99987.06;;;3.90;100.00
51928;BME280;37953;52.806;18.270;2023-11-21T00:37:32;99989.63;;;3.90;100.00
51928;BME280;37953;52.806;18.270;2023-11-21T00:39:58;99987.06;;;3.90;100.00
51928;BME280;37953;52.806;18.270;2023-11-21T00:42:24;99984.44;;;3.88;100.00
51928;BME280;37953;52.806;18.270;2023-11-21T00:44:50;99989.50;;;3.85;100.00
51928;BME280;37953;52.806;18.270;2023-11-21T00:47:16;99992.97;;;3.85;100.00
51928;BME280;37953;52.806;18.270;2023-11-21T00:49:42;99995.53;;;3.85;100.00
51928;BME280;37953;52.806;18.270;2023-11-21T00:52:08;99996.38;;;3.86;100.00
51928;BME280;37953;52.806;18.270;2023-11-21T00:54:34;99996.34;;;3.84;100.00
51928;BME280;37953;52.806;18.270;2023-11-21T00:57:00;100002.31;;;3.83;100.00
51928;BME280;37953;52.806;18.270;2023-11-21T00:59:26;100004.06;;;3.84;100.00
51928;BME280;37953;52.806;18.270;2023-11-21T01:01:52;100011.66;;;3.80;100.00
51928;BME280;37953;52.806;18.270;2023-11-21T01:04:19;100006.47;;;3.78;100.00
51928;BME280;37953;52.806;18.270;2023-11-21T01:06:45;100008.19;;;3.78;100.00
51928;BME280;37953;52.806;18.270;2023-11-21T01:09:11;100001.34;;;3.78;100.00
51928;BME280;37953;52.806;18.270;2023-11-21T01:11:38;100004.75;;;3.77;100.00
51928;BME280;37953;52.806;18.270;2023-11-21T01:14:04;100008.94;;;3.74;100.00
51928;BME280;37953;52.806;18.270;2023-11-21T01:16:32;100014.94;;;3.73;100.00
51928;BME280;37953;52.806;18.270;2023-11-21T01:19:07;100012.31;;;3.71;100.00
51928;BME280;37953;52.806;18.270;2023-11-21T01:21:33;100006.19;;;3.64;100.00
51928;BME280;37953;52.806;18.270;2023-11-21T01:23:59;100007.84;;;3.64;100.00
51928;BME280;37953;52.806;18.270;2023-11-21T01:26:25;100018.94;;;3.61;100.00
51928;BME280;37953;52.806;18.270;2023-11-21T01:28:51;100018.94;;;3.61;100.00
51928;BME280;37953;52.806;18.270;2023-11-21T01:31:17;100021.44;;;3.58;100.00
51928;BME280;37953;52.806;18.270;2023-11-21T01:33:43;100026.63;;;3.60;100.00
51928;BME280;37953;52.806;18.270;2023-11-21T01:36:09;100024.00;;;3.58;100.00
51928;BME280;37953;52.806;18.270;2023-11-21T01:38:35;100029.16;;;3.58;100.00
51928;BME280;37953;52.806;18.270;2023-11-21T01:41:01;100025.69;;;3.56;100.00
51928;BME280;37953;52.806;18.270;2023-11-21T01:43:27;100025.69;;;3.56;100.00
51928;BME280;37953;52.806;18.270;2023-11-21T01:45:54;100035.09;;;3.57;100.00
51928;BME280;37953;52.806;18.270;2023-11-21T01:48:23;100032.53;;;3.57;100.00
51928;BME280;37953;52.806;18.270;2023-11-21T01:50:55;100028.34;;;3.61;100.00
51928;BME280;37953;52.806;18.270;2023-11-21T01:53:21;100030.88;;;3.59;100.00
51928;BME280;37953;52.806;18.270;2023-11-21T01:55:47;100031.72;;;3.58;100.00
51928;BME280;37953;52.806;18.270;2023-11-21T01:58:15;100039.44;;;3.58;100.00
51928;BME280;37953;52.806;18.270;2023-11-21T02:00:42;100036.00;;;3.58;100.00
51928;BME280;37953;52.806;18.270;2023-11-21T02:03:09;100041.19;;;3.61;100.00
51928;BME280;37953;52.806;18.270;2023-11-21T02:05:41;100040.34;;;3.62;100.00
51928;BME280;37953;52.806;18.270;2023-11-21T02:08:07;100042.13;;;3.64;100.00
51928;BME280;37953;52.806;18.270;2023-11-21T02:10:35;100046.44;;;3.65;100.00
51928;BME280;37953;52.806;18.270;2023-11-21T02:13:03;100046.53;;;3.69;100.00
51928;BME280;37953;52.806;18.270;2023-11-21T02:15:29;100038.81;;;3.69;100.00
51928;BME280;37953;52.806;18.270;2023-11-21T02:18:01;100041.34;;;3.67;100.00
51928;BME280;37953;52.806;18.270;2023-11-21T02:20:28;100045.53;;;3.63;100.00
51928;BME280;37953;52.806;18.270;2023-11-21T02:22:56;100051.50;;;3.62;100.00
51928;BME280;37953;52.806;18.270;2023-11-21T02:27:51;100049.69;;;3.58;100.00
51928;BME280;37953;52.806;18.270;2023-11-21T02:30:17;100050.41;;;3.53;100.00
51928;BME280;37953;52.806;18.270;2023-11-21T02:32:44;100059.88;;;3.54;100.00
51928;BME280;37953;52.806;18.270;2023-11-21T02:35:10;100056.34;;;3.50;100.00
51928;BME280;37953;52.806;18.270;2023-11-21T02:37:37;100059.72;;;3.49;100.00
51928;BME280;37953;52.806;18.270;2023-11-21T02:40:16;100064.03;;;3.50;100.00
51928;BME280;37953;52.806;18.270;2023-11-21T02:42:49;100060.56;;;3.48;100.00
51928;BME280;37953;52.806;18.270;2023-11-21T02:45:21;100080.25;;;3.47;100.00
51928;BME280;37953;52.806;18.270;2023-11-21T02:47:48;100070.84;;;3.48;100.00
51928;BME280;37953;52.806;18.270;2023-11-21T02:50:18;100084.59;;;3.50;100.00
51928;BME280;37953;52.806;18.270;2023-11-21T02:52:44;100086.28;;;3.50;100.00
51928;BME280;37953;52.806;18.270;2023-11-21T02:55:16;100096.44;;;3.45;100.00
51928;BME280;37953;52.806;18.270;2023-11-21T02:57:42;100100.69;;;3.44;100.00
51928;BME280;37953;52.806;18.270;2023-11-21T03:00:09;100106.69;;;3.43;100.00
51928;BME280;37953;52.806;18.270;2023-11-21T03:02:38;100105.81;;;3.43;100.00
51928;BME280;37953;52.806;18.270;2023-11-21T03:05:11;100107.53;;;3.44;100.00
51928;BME280;37953;52.806;18.270;2023-11-21T03:07:37;100098.03;;;3.40;100.00
51928;BME280;37953;52.806;18.270;2023-11-21T03:10:04;100104.81;;;3.38;100.00
51928;BME280;37953;52.806;18.270;2023-11-21T03:12:30;100098.78;;;3.36;100.00
51928;BME280;37953;52.806;18.270;2023-11-21T03:14:56;100105.66;;;3.37;100.00
51928;BME280;37953;52.806;18.270;2023-11-21T03:17:22;100100.47;;;3.35;100.00
51928;BME280;37953;52.806;18.270;2023-11-21T03:19:48;100099.63;;;3.35;100.00
51928;BME280;37953;52.806;18.270;2023-11-21T03:22:13;100097.91;;;3.35;100.00
51928;BME280;37953;52.806;18.270;2023-11-21T03:24:40;100101.28;;;3.34;100.00
51928;BME280;37953;52.806;18.270;2023-11-21T03:27:05;100103.03;;;3.35;100.00
51928;BME280;37953;52.806;18.270;2023-11-21T03:29:32;100109.88;;;3.35;100.00
51928;BME280;37953;52.806;18.270;2023-11-21T03:31:57;100117.59;;;3.35;100.00
51928;BME280;37953;52.806;18.270;2023-11-21T03:34:27;100109.03;;;3.36;100.00
51928;BME280;37953;52.806;18.270;2023-11-21T03:36:53;100111.59;;;3.36;100.00
51928;BME280;37953;52.806;18.270;2023-11-21T03:39:20;100120.16;;;3.36;100.00
51928;BME280;37953;52.806;18.270;2023-11-21T03:41:46;100110.75;;;3.35;100.00
51928;BME280;37953;52.806;18.270;2023-11-21T03:44:13;100121.00;;;3.35;100.00
51928;BME280;37953;52.806;18.270;2023-11-21T03:46:39;100117.53;;;3.33;100.00
51928;BME280;37953;52.806;18.270;2023-11-21T03:49:05;100114.16;;;3.36;100.00
51928;BME280;37953;52.806;18.270;2023-11-21T03:51:31;100117.53;;;3.33;100.00
51928;BME280;37953;52.806;18.270;2023-11-21T03:53:57;100125.13;;;3.30;100.00
51928;BME280;37953;52.806;18.270;2023-11-21T03:56:23;100123.41;;;3.29;100.00
51928;BME280;37953;52.806;18.270;2023-11-21T03:58:49;100136.31;;;3.31;100.00
51928;BME280;37953;52.806;18.270;2023-11-21T04:01:22;100138.03;;;3.32;100.00
51928;BME280;37953;52.806;18.270;2023-11-21T04:03:51;100130.16;;;3.25;100.00
51928;BME280;37953;52.806;18.270;2023-11-21T04:06:17;100128.50;;;3.28;100.00
51928;BME280;37953;52.806;18.270;2023-11-21T04:08:44;100128.47;;;3.26;100.00
51928;BME280;37953;52.806;18.270;2023-11-21T04:11:11;100129.28;;;3.25;100.00
51928;BME280;37953;52.806;18.270;2023-11-21T04:13:40;100127.47;;;3.21;100.00
51928;BME280;37953;52.806;18.270;2023-11-21T04:16:07;100117.09;;;3.16;100.00
51928;BME280;37953;52.806;18.270;2023-11-21T04:18:35;100130.66;;;3.12;100.00
51928;BME280;37953;52.806;18.270;2023-11-21T04:21:06;100131.47;;;3.10;100.00
51928;BME280;37953;52.806;18.270;2023-11-21T04:23:38;100136.63;;;3.11;100.00
51928;BME280;37953;52.806;18.270;2023-11-21T04:26:05;100137.44;;;3.10;100.00
51928;BME280;37953;52.806;18.270;2023-11-21T04:28:32;100141.72;;;3.10;100.00
51928;BME280;37953;52.806;18.270;2023-11-21T04:30:58;100145.09;;;3.07;100.00
51928;BME280;37953;52.806;18.270;2023-11-21T04:33:24;100154.44;;;3.05;100.00
51928;BME280;37953;52.806;18.270;2023-11-21T04:35:51;100157.00;;;3.05;100.00
51928;BME280;37953;52.806;18.270;2023-11-21T04:38:17;100155.25;;;3.04;100.00
51928;BME280;37953;52.806;18.270;2023-11-21T04:40:45;100164.53;;;3.00;100.00
51928;BME280;37953;52.806;18.270;2023-11-21T04:43:12;100166.25;;;3.00;100.00
51928;BME280;37953;52.806;18.270;2023-11-21T04:45:38;100169.59;;;2.97;100.00
51928;BME280;37953;52.806;18.270;2023-11-21T04:48:04;100172.22;;;2.99;100.00
51928;BME280;37953;52.806;18.270;2023-11-21T04:50:32;100170.41;;;2.96;100.00
51928;BME280;37953;52.806;18.270;2023-11-21T04:52:58;100178.91;;;2.94;100.00
51928;BME280;37953;52.806;18.270;2023-11-21T04:55:24;100172.84;;;2.92;100.00
51928;BME280;37953;52.806;18.270;2023-11-21T04:57:53;100173.75;;;2.92;100.00
51928;BME280;37953;52.806;18.270;2023-11-21T05:00:19;100186.56;;;2.92;100.00
51928;BME280;37953;52.806;18.270;2023-11-21T05:02:47;100198.56;;;2.93;100.00
51928;BME280;37953;52.806;18.270;2023-11-21T05:05:13;100195.91;;;2.90;100.00
51928;BME280;37953;52.806;18.270;2023-11-21T05:07:50;100191.69;;;2.92;100.00
51928;BME280;37953;52.806;18.270;2023-11-21T05:10:16;100202.78;;;2.91;100.00
51928;BME280;37953;52.806;18.270;2023-11-21T05:12:42;100205.34;;;2.91;100.00
51928;BME280;37953;52.806;18.270;2023-11-21T05:15:08;100205.41;;;2.93;100.00
51928;BME280;37953;52.806;18.270;2023-11-21T05:17:39;100208.78;;;2.92;100.00
51928;BME280;37953;52.806;18.270;2023-11-21T05:20:09;100214.78;;;2.92;100.00
51928;BME280;37953;52.806;18.270;2023-11-21T05:22:36;100214.78;;;2.92;100.00
51928;BME280;37953;52.806;18.270;2023-11-21T05:25:06;100216.53;;;2.93;100.00
51928;BME280;37953;52.806;18.270;2023-11-21T05:27:40;100220.88;;;2.96;100.00
51928;BME280;37953;52.806;18.270;2023-11-21T05:30:06;100225.09;;;2.94;100.00
51928;BME280;37953;52.806;18.270;2023-11-21T05:32:35;100219.94;;;2.94;100.00
51928;BME280;37953;52.806;18.270;2023-11-21T05:35:01;100233.63;;;2.93;100.00
51928;BME280;37953;52.806;18.270;2023-11-21T05:37:27;100236.13;;;2.91;100.00
51928;BME280;37953;52.806;18.270;2023-11-21T05:39:53;100237.88;;;2.92;100.00
51928;BME280;37953;52.806;18.270;2023-11-21T05:42:26;100238.69;;;2.91;100.00
51928;BME280;37953;52.806;18.270;2023-11-21T05:44:52;100239.47;;;2.89;100.00
51928;BME280;37953;52.806;18.270;2023-11-21T05:47:18;100242.84;;;2.86;100.00
51928;BME280;37953;52.806;18.270;2023-11-21T05:49:44;100246.22;;;2.85;100.00
51928;BME280;37953;52.806;18.270;2023-11-21T05:52:11;100252.19;;;2.84;100.00
51928;BME280;37953;52.806;18.270;2023-11-21T05:54:37;100259.91;;;2.85;100.00
51928;BME280;37953;52.806;18.270;2023-11-21T05:57:03;100254.75;;;2.85;100.00
51928;BME280;37953;52.806;18.270;2023-11-21T05:59:29;100251.38;;;2.87;100.00
51928;BME280;37953;52.806;18.270;2023-11-21T06:01:56;100254.75;;;2.85;100.00
51928;BME280;37953;52.806;18.270;2023-11-21T06:04:21;100261.53;;;2.83;100.00
51928;BME280;37953;52.806;18.270;2023-11-21T06:06:56;100268.44;;;2.84;100.00
51928;BME280;37953;52.806;18.270;2023-11-21T06:09:22;100261.53;;;2.82;100.00
51928;BME280;37953;52.806;18.270;2023-11-21T06:11:48;100269.22;;;2.82;100.00
51928;BME280;37953;52.806;18.270;2023-11-21T06:14:14;100270.88;;;2.81;100.00
51928;BME280;37953;52.806;18.270;2023-11-21T06:16:43;100274.34;;;2.82;100.00
51928;BME280;37953;52.806;18.270;2023-11-21T06:19:11;100282.78;;;2.78;100.00
51928;BME280;37953;52.806;18.270;2023-11-21T06:21:38;100283.56;;;2.77;100.00
51928;BME280;37953;52.806;18.270;2023-11-21T06:24:04;100289.53;;;2.76;100.00
51928;BME280;37953;52.806;18.270;2023-11-21T06:26:30;100289.47;;;2.74;100.00
51928;BME280;37953;52.806;18.270;2023-11-21T06:28:57;100292.00;;;2.73;100.00
51928;BME280;37953;52.806;18.270;2023-11-21T06:31:23;100298.88;;;2.74;100.00
51928;BME280;37953;52.806;18.270;2023-11-21T06:33:49;100301.38;;;2.72;100.00
51928;BME280;37953;52.806;18.270;2023-11-21T06:36:20;100303.91;;;2.71;100.00
51928;BME280;37953;52.806;18.270;2023-11-21T06:38:46;100304.69;;;2.68;100.00
51928;BME280;37953;52.806;18.270;2023-11-21T06:41:13;100311.56;;;2.69;100.00
51928;BME280;37953;52.806;18.270;2023-11-21T06:43:42;100314.13;;;2.69;100.00
51928;BME280;37953;52.806;18.270;2023-11-21T06:46:13;100319.25;;;2.69;100.00
51928;BME280;37953;52.806;18.270;2023-11-21T06:48:44;100324.34;;;2.68;100.00
51928;BME280;37953;52.806;18.270;2023-11-21T06:51:11;100323.34;;;2.64;100.00
51928;BME280;37953;52.806;18.270;2023-11-21T06:53:37;100330.19;;;2.63;100.00
51928;BME280;37953;52.806;18.270;2023-11-21T06:56:03;100327.69;;;2.65;100.00
51928;BME280;37953;52.806;18.270;2023-11-21T06:58:29;100334.44;;;2.63;100.00
51928;BME280;37953;52.806;18.270;2023-11-21T07:00:55;100347.22;;;2.61;100.00
51928;BME280;37953;52.806;18.270;2023-11-21T07:03:27;100348.84;;;2.59;100.00
51928;BME280;37953;52.806;18.270;2023-11-21T07:06:07;100354.91;;;2.61;100.00
51928;BME280;37953;52.806;18.270;2023-11-21T07:08:33;100350.50;;;2.57;100.00
51928;BME280;37953;52.806;18.270;2023-11-21T07:10:59;100359.84;;;2.55;100.00
51928;BME280;37953;52.806;18.270;2023-11-21T07:13:25;100362.41;;;2.55;100.00
51928;BME280;37953;52.806;18.270;2023-11-21T07:15:51;100369.22;;;2.55;100.00
51928;BME280;37953;52.806;18.270;2023-11-21T07:18:18;100376.13;;;2.57;100.00
51928;BME280;37953;52.806;18.270;2023-11-21T07:20:44;100377.00;;;2.58;100.00
51928;BME280;37953;52.806;18.270;2023-11-21T07:23:10;100377.78;;;2.55;100.00
51928;BME280;37953;52.806;18.270;2023-11-21T07:25:36;100385.41;;;2.54;100.00
51928;BME280;37953;52.806;18.270;2023-11-21T07:28:02;100383.53;;;2.48;100.00
51928;BME280;37953;52.806;18.270;2023-11-21T07:30:28;100392.00;;;2.46;100.00
51928;BME280;37953;52.806;18.270;2023-11-21T07:32:54;100398.78;;;2.43;100.00
51928;BME280;37953;52.806;18.270;2023-11-21T07:35:24;100395.28;;;2.41;100.00
51928;BME280;37953;52.806;18.270;2023-11-21T07:37:50;100400.50;;;2.44;100.00
51928;BME280;37953;52.806;18.270;2023-11-21T07:40:16;100403.06;;;2.44;100.00
51928;BME280;37953;52.806;18.270;2023-11-21T07:42:42;100399.72;;;2.47;100.00
51928;BME280;37953;52.806;18.270;2023-11-21T07:45:09;100406.63;;;2.48;100.00
51928;BME280;37953;52.806;18.270;2023-11-21T07:47:35;100408.28;;;2.48;100.00
51928;BME280;37953;52.806;18.270;2023-11-21T07:50:04;100405.72;;;2.48;100.00
51928;BME280;37953;52.806;18.270;2023-11-21T07:52:30;100404.97;;;2.50;100.00
51928;BME280;37953;52.806;18.270;2023-11-21T07:54:56;100409.19;;;2.48;100.00
51928;BME280;37953;52.806;18.270;2023-11-21T07:57:22;100408.34;;;2.49;100.00
51928;BME280;37953;52.806;18.270;2023-11-21T07:59:49;100411.75;;;2.48;100.00
51928;BME280;37953;52.806;18.270;2023-11-21T08:02:15;100410.81;;;2.46;100.00
51928;BME280;37953;52.806;18.270;2023-11-21T08:04:43;100417.63;;;2.46;100.00
51928;BME280;37953;52.806;18.270;2023-11-21T08:07:09;100413.31;;;2.44;100.00
51928;BME280;37953;52.806;18.270;2023-11-21T08:09:42;100414.88;;;2.41;100.00
51928;BME280;37953;52.806;18.270;2023-11-21T08:12:10;100419.94;;;2.38;100.00
51928;BME280;37953;52.806;18.270;2023-11-21T08:14:36;100426.75;;;2.37;100.00
51928;BME280;37953;52.806;18.270;2023-11-21T08:17:04;100424.06;;;2.34;100.00
51928;BME280;37953;52.806;18.270;2023-11-21T08:19:30;100416.38;;;2.34;100.00
51928;BME280;37953;52.806;18.270;2023-11-21T08:21:57;100426.63;;;2.34;100.00
51928;BME280;37953;52.806;18.270;2023-11-21T08:24:25;100436.09;;;2.37;100.00
51928;BME280;37953;52.806;18.270;2023-11-21T08:26:51;100435.31;;;2.38;100.00
51928;BME280;37953;52.806;18.270;2023-11-21T08:29:18;100444.00;;;2.41;100.00
51928;BME280;37953;52.806;18.270;2023-11-21T08:31:44;100438.88;;;2.41;100.00
51928;BME280;37953;52.806;18.270;2023-11-21T08:34:13;100434.53;;;2.40;100.00
51928;BME280;37953;52.806;18.270;2023-11-21T08:36:43;100431.25;;;2.44;100.00
51928;BME280;37953;52.806;18.270;2023-11-21T08:39:09;100428.63;;;2.43;100.00
51928;BME280;37953;52.806;18.270;2023-11-21T08:41:36;100426.84;;;2.40;100.00
51928;BME280;37953;52.806;18.270;2023-11-21T08:44:02;100430.28;;;2.41;100.00
51928;BME280;37953;52.806;18.270;2023-11-21T08:46:33;100430.28;;;2.41;100.00
51928;BME280;37953;52.806;18.270;2023-11-21T08:49:03;100435.38;;;2.39;100.00
51928;BME280;37953;52.806;18.270;2023-11-21T08:51:29;100445.66;;;2.41;100.00
51928;BME280;37953;52.806;18.270;2023-11-21T08:53:55;100441.44;;;2.41;100.00
51928;BME280;37953;52.806;18.270;2023-11-21T08:56:35;100439.78;;;2.43;100.00
51928;BME280;37953;52.806;18.270;2023-11-21T08:59:04;100444.91;;;2.43;100.00
51928;BME280;37953;52.806;18.270;2023-11-21T09:01:31;100440.59;;;2.42;100.00
51928;BME280;37953;52.806;18.270;2023-11-21T09:03:57;100452.59;;;2.43;100.00
51928;BME280;37953;52.806;18.270;2023-11-21T09:06:24;100449.06;;;2.40;100.00
51928;BME280;37953;52.806;18.270;2023-11-21T09:08:53;100451.72;;;2.43;100.00
51928;BME280;37953;52.806;18.270;2023-11-21T09:11:19;100458.47;;;2.41;100.00
51928;BME280;37953;52.806;18.270;2023-11-21T09:13:45;100455.03;;;2.40;100.00
51928;BME280;37953;52.806;18.270;2023-11-21T09:16:14;100457.75;;;2.43;100.00
51928;BME280;37953;52.806;18.270;2023-11-21T09:18:41;100466.16;;;2.41;100.00
51928;BME280;37953;52.806;18.270;2023-11-21T09:21:07;100470.38;;;2.39;100.00
51928;BME280;37953;52.806;18.270;2023-11-21T09:23:35;100465.06;;;2.34;100.00
51928;BME280;37953;52.806;18.270;2023-11-21T09:26:01;100472.72;;;2.33;100.00
51928;BME280;37953;52.806;18.270;2023-11-21T09:28:27;100469.19;;;2.29;100.00
51928;BME280;37953;52.806;18.270;2023-11-21T09:30:53;100475.09;;;2.28;100.00
51928;BME280;37953;52.806;18.270;2023-11-21T09:33:19;100480.22;;;2.28;100.00
51928;BME280;37953;52.806;18.270;2023-11-21T09:35:47;100475.94;;;2.27;100.00
51928;BME280;37953;52.806;18.270;2023-11-21T09:38:15;100490.47;;;2.27;100.00
51928;BME280;37953;52.806;18.270;2023-11-21T09:40:41;100492.94;;;2.25;100.00
51928;BME280;37953;52.806;18.270;2023-11-21T09:43:16;100486.13;;;2.26;100.00
51928;BME280;37953;52.806;18.270;2023-11-21T09:45:59;100486.13;;;2.26;100.00
51928;BME280;37953;52.806;18.270;2023-11-21T09:48:26;100487.69;;;2.22;100.00
51928;BME280;37953;52.806;18.270;2023-11-21T09:50:58;100489.53;;;2.24;100.00
51928;BME280;37953;52.806;18.270;2023-11-21T09:53:27;100490.25;;;2.22;100.00
51928;BME280;37953;52.806;18.270;2023-11-21T09:55:55;100489.41;;;2.21;100.00
51928;BME280;37953;52.806;18.270;2023-11-21T09:58:22;100502.22;;;2.21;100.00
51928;BME280;37953;52.806;18.270;2023-11-21T10:00:53;100488.53;;;2.21;100.00
51928;BME280;37953;52.806;18.270;2023-11-21T10:03:20;100498.00;;;2.23;100.00
51928;BME280;37953;52.806;18.270;2023-11-21T10:05:48;100503.13;;;2.23;100.00
51928;BME280;37953;52.806;18.270;2023-11-21T10:08:16;100497.94;;;2.22;100.00
51928;BME280;37953;52.806;18.270;2023-11-21T10:10:46;100504.72;;;2.20;100.00
51928;BME280;37953;52.806;18.270;2023-11-21T10:13:18;100502.13;;;2.18;100.00
51928;BME280;37953;52.806;18.270;2023-11-21T10:15:59;100507.41;;;2.23;100.00
51928;BME280;37953;52.806;18.270;2023-11-21T10:18:25;100495.75;;;2.31;100.00
51928;BME280;37953;52.806;18.270;2023-11-21T10:20:53;100493.88;;;2.27;100.00
51928;BME280;37953;52.806;18.270;2023-11-21T10:23:21;100507.56;;;2.28;100.00
51928;BME280;37953;52.806;18.270;2023-11-21T10:25:48;100506.56;;;2.24;100.00
51928;BME280;37953;52.806;18.270;2023-11-21T10:28:15;100509.09;;;2.22;100.00
51928;BME280;37953;52.806;18.270;2023-11-21T10:30:41;100508.28;;;2.23;100.00
51928;BME280;37953;52.806;18.270;2023-11-21T10:33:08;100521.91;;;2.22;100.00
51928;BME280;37953;52.806;18.270;2023-11-21T10:35:59;100514.38;;;2.27;100.00
51928;BME280;37953;52.806;18.270;2023-11-21T10:38:27;100527.28;;;2.29;100.00
51928;BME280;37953;52.806;18.270;2023-11-21T10:40:59;100528.78;;;2.23;100.00
51928;BME280;37953;52.806;18.270;2023-11-21T10:43:25;100529.53;;;2.21;100.00
51928;BME280;37953;52.806;18.270;2023-11-21T10:45:52;100531.28;;;2.22;100.00
51928;BME280;37953;52.806;18.270;2023-11-21T10:48:18;100531.22;;;2.20;100.00
51928;BME280;37953;52.806;18.270;2023-11-21T10:50:47;100535.47;;;2.20;100.00
51928;BME280;37953;52.806;18.270;2023-11-21T10:53:15;100540.59;;;2.20;100.00
51928;BME280;37953;52.806;18.270;2023-11-21T10:55:42;100536.41;;;2.22;100.00
51928;BME280;37953;52.806;18.270;2023-11-21T10:58:11;100539.84;;;2.22;100.00
51928;BME280;37953;52.806;18.270;2023-11-21T11:00:40;100541.41;;;2.19;100.00
51928;BME280;37953;52.806;18.270;2023-11-21T11:03:06;100543.16;;;2.20;100.00
51928;BME280;37953;52.806;18.270;2023-11-21T11:05:43;100540.59;;;2.20;100.00
51928;BME280;37953;52.806;18.270;2023-11-21T11:08:18;100550.84;;;2.20;100.00
51928;BME280;37953;52.806;18.270;2023-11-21T11:10:47;100546.63;;;2.20;100.00
51928;BME280;37953;52.806;18.270;2023-11-21T11:13:16;100546.53;;;2.19;100.00
51928;BME280;37953;52.806;18.270;2023-11-21T11:15:42;100555.03;;;2.18;100.00
51928;BME280;37953;52.806;18.270;2023-11-21T11:18:15;100552.38;;;2.15;100.00
51928;BME280;37953;52.806;18.270;2023-11-21T11:20:43;100546.41;;;2.16;100.00
51928;BME280;37953;52.806;18.270;2023-11-21T11:28:47;100543.06;;;2.17;100.00
51928;BME280;37953;52.806;18.270;2023-11-21T11:36:52;100554.22;;;2.19;100.00
51928;BME280;37953;52.806;18.270;2023-11-21T11:39:35;100555.16;;;2.21;100.00
51928;BME280;37953;52.806;18.270;2023-11-21T11:42:04;100560.34;;;2.22;100.00
51928;BME280;37953;52.806;18.270;2023-11-21T11:44:59;100555.41;;;2.27;100.00
51928;BME280;37953;52.806;18.270;2023-11-21T11:47:38;100565.72;;;2.29;100.00
51928;BME280;37953;52.806;18.270;2023-11-21T11:50:18;100569.94;;;2.28;100.00
51928;BME280;37953;52.806;18.270;2023-11-21T11:52:49;100575.03;;;2.27;100.00
51928;BME280;37953;52.806;18.270;2023-11-21T11:55:18;100580.19;;;2.28;100.00
51928;BME280;37953;52.806;18.270;2023-11-21T11:57:45;100582.84;;;2.30;100.00
51928;BME280;37953;52.806;18.270;2023-11-21T12:00:22;100590.59;;;2.31;100.00
51928;BME280;37953;52.806;18.270;2023-11-21T12:02:53;100589.00;;;2.35;100.00
51928;BME280;37953;52.806;18.270;2023-11-21T12:05:20;100588.97;;;2.33;100.00
51928;BME280;37953;52.806;18.270;2023-11-21T12:07:49;100589.81;;;2.34;100.00
51928;BME280;37953;52.806;18.270;2023-11-21T12:10:43;100609.63;;;2.38;100.00
51928;BME280;37953;52.806;18.270;2023-11-21T12:13:10;100611.19;;;2.34;100.00
51928;BME280;37953;52.806;18.270;2023-11-21T12:15:40;100608.78;;;2.37;100.00
51928;BME280;37953;52.806;18.270;2023-11-21T12:18:07;100612.97;;;2.35;100.00
51928;BME280;37953;52.806;18.270;2023-11-21T12:20:33;100612.13;;;2.36;100.00
51928;BME280;37953;52.806;18.270;2023-11-21T12:23:05;100617.25;;;2.36;100.00
51928;BME280;37953;52.806;18.270;2023-11-21T12:25:31;100615.63;;;2.38;100.00
51928;BME280;37953;52.806;18.270;2023-11-21T12:27:59;100606.25;;;2.39;100.00
51928;BME280;37953;52.806;18.270;2023-11-21T12:30:27;100618.13;;;2.37;100.00
51928;BME280;37953;52.806;18.270;2023-11-21T12:33:03;100625.03;;;2.38;100.00
51928;BME280;37953;52.806;18.270;2023-11-21T12:35:36;100618.25;;;2.40;100.00
51928;BME280;37953;52.806;18.270;2023-11-21T12:38:04;100614.00;;;2.40;100.00
51928;BME280;37953;52.806;18.270;2023-11-21T12:40:30;100619.13;;;2.40;100.00
51928;BME280;37953;52.806;18.270;2023-11-21T12:42:58;100620.81;;;2.40;100.00
51928;BME280;37953;52.806;18.270;2023-11-21T12:45:27;100626.97;;;2.43;100.00
51928;BME280;37953;52.806;18.270;2023-11-21T12:48:02;100631.31;;;2.46;100.00
51928;BME280;37953;52.806;18.270;2023-11-21T12:50:48;100628.75;;;2.46;100.00
51928;BME280;37953;52.806;18.270;2023-11-21T12:53:28;100625.44;;;2.49;100.00
51928;BME280;37953;52.806;18.270;2023-11-21T12:56:06;100626.22;;;2.48;100.00
51928;BME280;37953;52.806;18.270;2023-11-21T12:58:35;100628.78;;;2.48;100.00